createdAt,value
2022-10-06T00:00:50.188Z,17.04
2022-10-06T00:03:18.748Z,17.06
2022-10-06T00:05:48.283Z,17.02
2022-10-06T00:08:16.197Z,17.05
2022-10-06T00:10:44.320Z,17.04
2022-10-06T00:13:12.234Z,17.04
2022-10-06T00:15:40.749Z,17.02
2022-10-06T00:18:08.792Z,16.93
2022-10-06T00:20:36.984Z,16.90
2022-10-06T00:23:06.531Z,16.90
2022-10-06T00:25:34.590Z,16.93
2022-10-06T00:28:02.643Z,16.88
2022-10-06T00:30:31.383Z,16.88
2022-10-06T00:33:01.062Z,16.83
2022-10-06T00:35:32.094Z,16.79
2022-10-06T00:38:00.912Z,16.82
2022-10-06T00:40:31.360Z,16.83
2022-10-06T00:43:00.978Z,16.83
2022-10-06T00:45:33.173Z,16.82
2022-10-06T00:48:03.994Z,16.79
2022-10-06T00:50:32.821Z,16.63
2022-10-06T00:53:01.500Z,16.53
2022-10-06T00:55:31.141Z,16.37
2022-10-06T00:58:00.002Z,16.21
2022-10-06T01:00:28.976Z,16.34
2022-10-06T01:03:01.284Z,16.14
2022-10-06T01:05:31.872Z,16.09
2022-10-06T01:08:00.533Z,16.06
2022-10-06T01:10:28.881Z,15.99
2022-10-06T01:12:58.641Z,15.94
2022-10-06T01:15:28.976Z,15.87
2022-10-06T01:18:02.440Z,15.83
2022-10-06T01:20:30.978Z,15.82
2022-10-06T01:23:05.237Z,15.75
2022-10-06T01:25:35.307Z,15.77
2022-10-06T01:28:05.037Z,15.71
2022-10-06T01:30:37.497Z,15.69
2022-10-06T01:33:05.779Z,15.65
2022-10-06T01:35:33.594Z,15.57
2022-10-06T01:38:02.836Z,15.64
2022-10-06T01:40:30.769Z,15.59
2022-10-06T01:42:58.566Z,15.57
2022-10-06T01:45:26.448Z,15.54
2022-10-06T01:47:54.296Z,15.51
2022-10-06T01:50:22.183Z,15.48
2022-10-06T01:52:50.124Z,15.48
2022-10-06T01:55:19.870Z,15.42
2022-10-06T01:57:47.843Z,15.39
2022-10-06T02:00:15.945Z,15.34
2022-10-06T02:02:44.917Z,15.31
2022-10-06T02:05:14.606Z,15.28
2022-10-06T02:07:42.615Z,15.26
2022-10-06T02:10:11.109Z,15.24
2022-10-06T02:12:40.536Z,15.20
2022-10-06T02:15:11.063Z,15.19
2022-10-06T02:17:40.233Z,15.13
2022-10-06T02:20:08.841Z,15.12
2022-10-06T02:22:38.940Z,15.09
2022-10-06T02:25:07.382Z,15.05
2022-10-06T02:27:35.236Z,15.03
2022-10-06T02:30:05.637Z,15.01
2022-10-06T02:32:35.407Z,14.98
2022-10-06T02:35:04.862Z,14.97
2022-10-06T02:37:32.784Z,14.95
2022-10-06T02:40:00.779Z,14.95
2022-10-06T02:42:29.079Z,14.93
2022-10-06T02:44:58.972Z,14.95
2022-10-06T02:47:28.249Z,14.94
2022-10-06T02:49:56.074Z,14.99
2022-10-06T02:52:24.130Z,14.98
2022-10-06T02:54:52.425Z,15.04
2022-10-06T02:57:20.436Z,15.00
2022-10-06T02:59:48.209Z,14.93
2022-10-06T03:02:16.231Z,14.88
2022-10-06T03:04:45.653Z,14.85
2022-10-06T03:07:13.909Z,14.86
2022-10-06T03:09:42.020Z,14.81
2022-10-06T03:12:10.205Z,14.65
2022-10-06T03:14:38.295Z,14.59
2022-10-06T03:17:06.405Z,14.57
2022-10-06T03:19:34.191Z,14.60
2022-10-06T03:22:03.659Z,14.60
2022-10-06T03:24:31.495Z,14.53
2022-10-06T03:26:59.388Z,14.51
2022-10-06T03:29:29.576Z,14.53
2022-10-06T03:31:57.429Z,14.58
2022-10-06T03:34:25.370Z,14.62
2022-10-06T03:36:53.295Z,14.65
2022-10-06T03:39:23.005Z,14.54
2022-10-06T03:41:50.930Z,14.54
2022-10-06T03:44:18.903Z,14.51
2022-10-06T03:46:47.061Z,14.49
2022-10-06T03:49:15.214Z,14.49
2022-10-06T03:51:43.845Z,14.51
2022-10-06T03:54:12.613Z,14.55
2022-10-06T03:56:42.916Z,14.56
2022-10-06T03:59:12.913Z,14.60
2022-10-06T04:01:42.851Z,14.63
2022-10-06T04:04:12.149Z,14.71
2022-10-06T04:06:43.143Z,14.67
2022-10-06T04:09:15.904Z,14.71
2022-10-06T04:11:46.432Z,14.67
2022-10-06T04:14:17.239Z,14.67
2022-10-06T04:16:47.009Z,14.71
2022-10-06T04:19:17.259Z,14.76
2022-10-06T04:21:46.952Z,14.83
2022-10-06T04:24:17.160Z,14.87
2022-10-06T04:26:48.960Z,14.92
2022-10-06T04:29:17.385Z,14.94
2022-10-06T04:31:46.063Z,15.00
2022-10-06T04:34:14.512Z,15.03
2022-10-06T04:36:43.743Z,15.04
2022-10-06T04:39:13.127Z,15.07
2022-10-06T04:41:47.459Z,15.11
2022-10-06T04:44:19.110Z,15.12
2022-10-06T04:46:47.104Z,15.21
2022-10-06T04:49:20.055Z,15.20
2022-10-06T04:51:48.671Z,15.22
2022-10-06T04:54:16.909Z,15.24
2022-10-06T04:56:44.941Z,15.28
2022-10-06T04:59:13.093Z,15.31
2022-10-06T05:01:42.540Z,15.34
2022-10-06T05:04:10.839Z,15.37
2022-10-06T05:06:41.275Z,15.39
2022-10-06T05:09:11.236Z,15.41
2022-10-06T05:11:39.498Z,15.43
2022-10-06T05:14:07.839Z,15.45
2022-10-06T05:16:38.114Z,15.49
2022-10-06T05:19:08.395Z,15.47
2022-10-06T05:21:36.543Z,15.48
2022-10-06T05:24:07.130Z,15.49
2022-10-06T05:26:36.811Z,15.49
2022-10-06T05:29:05.885Z,15.49
2022-10-06T05:31:38.908Z,15.52
2022-10-06T05:34:08.513Z,15.51
2022-10-06T05:36:36.960Z,15.51
2022-10-06T05:39:05.535Z,15.53
2022-10-06T05:41:34.924Z,15.53
2022-10-06T05:44:03.279Z,15.54
2022-10-06T05:46:33.557Z,15.57
2022-10-06T05:49:03.502Z,15.58
2022-10-06T05:51:34.443Z,15.56
2022-10-06T05:54:02.605Z,15.55
2022-10-06T05:56:31.721Z,15.53
2022-10-06T05:59:00.815Z,15.57
2022-10-06T06:01:31.396Z,15.59
2022-10-06T06:04:03.094Z,15.59
2022-10-06T06:06:34.017Z,15.63
2022-10-06T06:09:03.645Z,15.62
2022-10-06T06:11:32.589Z,15.64
2022-10-06T06:14:02.499Z,15.66
2022-10-06T06:16:31.207Z,15.63
2022-10-06T06:19:00.690Z,15.62
2022-10-06T06:21:29.901Z,15.61
2022-10-06T06:23:59.405Z,15.66
2022-10-06T06:26:28.912Z,15.67
2022-10-06T06:29:04.168Z,15.74
2022-10-06T06:31:33.905Z,15.71
2022-10-06T06:34:04.895Z,15.72
2022-10-06T06:36:35.969Z,15.75
2022-10-06T06:39:07.247Z,15.73
2022-10-06T06:41:37.935Z,15.73
2022-10-06T06:44:07.399Z,15.76
2022-10-06T06:49:05.705Z,15.84
2022-10-06T06:51:34.613Z,15.84
2022-10-06T06:54:03.393Z,15.87
2022-10-06T06:56:35.114Z,15.89
2022-10-06T06:59:06.776Z,15.87
2022-10-06T07:01:34.744Z,15.84
2022-10-06T07:04:02.616Z,15.77
2022-10-06T07:06:31.889Z,15.78
2022-10-06T07:09:00.937Z,15.76
2022-10-06T07:11:38.583Z,15.81
2022-10-06T07:14:09.767Z,15.74
2022-10-06T07:16:55.106Z,15.75
2022-10-06T07:19:52.638Z,15.78
2022-10-06T07:22:41.267Z,15.75
2022-10-06T07:25:14.974Z,15.74
2022-10-06T07:27:51.197Z,15.77
2022-10-06T07:30:22.613Z,15.84
2022-10-06T07:32:52.200Z,15.80
2022-10-06T07:35:21.843Z,15.81
2022-10-06T07:37:50.437Z,15.75
2022-10-06T07:40:18.671Z,15.77
2022-10-06T07:42:49.343Z,15.83
2022-10-06T07:45:35.971Z,15.84
2022-10-06T07:48:06.363Z,15.85
2022-10-06T07:50:35.354Z,15.78
2022-10-06T07:53:07.703Z,15.81
2022-10-06T07:55:36.565Z,15.83
2022-10-06T07:58:04.554Z,15.85
2022-10-06T08:03:07.617Z,15.84
2022-10-06T08:05:35.594Z,15.85
2022-10-06T08:08:03.946Z,15.85
2022-10-06T08:10:31.820Z,15.86
2022-10-06T08:13:01.304Z,15.87
2022-10-06T08:15:29.205Z,15.87
2022-10-06T08:17:57.586Z,15.90
2022-10-06T08:20:27.746Z,15.97
2022-10-06T08:22:56.119Z,15.97
2022-10-06T08:25:24.348Z,15.97
2022-10-06T08:27:53.639Z,15.98
2022-10-06T08:30:27.212Z,16.05
2022-10-06T08:32:55.316Z,16.03
2022-10-06T08:35:23.535Z,16.03
2022-10-06T08:37:54.523Z,16.05
2022-10-06T08:40:22.680Z,16.05
2022-10-06T08:42:53.270Z,16.03
2022-10-06T08:45:25.206Z,16.05
2022-10-06T08:48:00.473Z,16.07
2022-10-06T08:50:33.017Z,16.07
2022-10-06T08:53:15.471Z,16.09
2022-10-06T08:55:50.151Z,16.13
2022-10-06T08:58:36.624Z,16.18
2022-10-06T09:01:18.648Z,16.27
2022-10-06T09:03:51.559Z,16.30
2022-10-06T09:06:31.300Z,16.35
2022-10-06T09:09:08.532Z,16.41
2022-10-06T09:11:47.918Z,16.38
2022-10-06T09:14:22.682Z,16.40
2022-10-06T09:16:54.892Z,16.42
2022-10-06T09:19:32.880Z,16.50
2022-10-06T09:22:04.803Z,16.47
2022-10-06T09:24:40.504Z,16.56
2022-10-06T09:27:18.501Z,16.60
2022-10-06T09:29:48.870Z,16.59
2022-10-06T09:32:17.303Z,16.63
2022-10-06T09:34:51.457Z,16.63
2022-10-06T09:37:20.287Z,16.69
2022-10-06T09:39:51.696Z,16.76
2022-10-06T09:42:22.786Z,16.80
2022-10-06T09:44:58.544Z,16.82
2022-10-06T09:47:39.104Z,16.92
2022-10-06T09:50:22.668Z,16.94
2022-10-06T09:53:16.201Z,17.04
2022-10-06T09:55:54.659Z,17.04
2022-10-06T09:58:34.281Z,17.07
2022-10-06T10:01:07.120Z,17.16
2022-10-06T10:04:08.411Z,17.25
2022-10-06T10:06:38.453Z,17.23
2022-10-06T10:09:36.688Z,17.23
2022-10-06T10:12:29.029Z,17.26
2022-10-06T10:15:02.615Z,17.35
2022-10-06T10:17:46.159Z,17.38
2022-10-06T10:20:40.110Z,17.42
2022-10-06T10:23:27.413Z,17.40
2022-10-06T10:26:18.746Z,17.30
2022-10-06T10:29:14.231Z,17.30
2022-10-06T10:31:56.116Z,17.36
2022-10-06T10:34:53.273Z,17.38
2022-10-06T10:37:26.653Z,17.62
2022-10-06T10:40:04.272Z,17.73
2022-10-06T10:42:38.490Z,17.78
2022-10-06T10:45:17.046Z,17.73
2022-10-06T10:47:46.579Z,17.77
2022-10-06T10:50:24.573Z,17.78
2022-10-06T10:52:56.004Z,17.70
2022-10-06T10:55:30.090Z,17.77
2022-10-06T10:58:05.477Z,17.71
2022-10-06T11:00:43.045Z,17.78
2022-10-06T11:03:16.164Z,17.86
2022-10-06T11:05:58.493Z,17.97
2022-10-06T11:08:35.849Z,17.97
2022-10-06T11:11:07.845Z,17.90
2022-10-06T11:13:42.078Z,17.83
2022-10-06T11:16:27.039Z,17.72
2022-10-06T11:19:11.093Z,17.60
2022-10-06T11:21:44.687Z,17.53
2022-10-06T11:24:20.727Z,17.51
2022-10-06T11:27:32.370Z,17.64
2022-10-06T11:30:07.593Z,17.85
2022-10-06T11:32:50.268Z,18.05
2022-10-06T11:35:21.241Z,18.14
2022-10-06T11:37:56.150Z,18.26
2022-10-06T11:40:39.805Z,18.27
2022-10-06T11:43:17.223Z,18.28
2022-10-06T11:45:54.283Z,18.38
2022-10-06T11:48:29.236Z,18.35
2022-10-06T11:50:59.202Z,18.30
2022-10-06T11:53:41.102Z,18.30
2022-10-06T11:56:46.605Z,18.25
2022-10-06T11:59:28.682Z,18.37
2022-10-06T12:01:58.847Z,18.40
2022-10-06T12:04:30.275Z,18.29
2022-10-06T12:07:00.661Z,18.31
2022-10-06T12:09:54.003Z,18.27
2022-10-06T12:12:57.338Z,18.26
2022-10-06T12:17:08.454Z,18.36
2022-10-06T12:19:00.598Z,18.25
2022-10-06T12:21:46.883Z,18.32
2022-10-06T12:24:33.830Z,18.26
2022-10-06T12:27:48.816Z,18.23
2022-10-06T12:30:23.047Z,18.22
2022-10-06T12:32:57.482Z,18.16
2022-10-06T12:35:31.625Z,18.20
2022-10-06T12:38:04.852Z,18.18
2022-10-06T12:40:55.369Z,18.30
2022-10-06T12:43:43.889Z,18.27
2022-10-06T12:46:22.129Z,18.36
2022-10-06T12:49:13.518Z,18.33
2022-10-06T12:51:43.879Z,18.36
2022-10-06T12:54:20.340Z,18.44
2022-10-06T12:56:59.797Z,18.41
2022-10-06T12:59:29.496Z,18.43
2022-10-06T13:02:00.401Z,18.35
2022-10-06T13:04:34.126Z,18.35
2022-10-06T13:07:08.540Z,18.49
2022-10-06T13:09:38.514Z,18.44
2022-10-06T13:12:28.491Z,18.42
2022-10-06T13:15:16.350Z,18.25
2022-10-06T13:17:49.151Z,18.29
2022-10-06T13:20:33.699Z,18.34
2022-10-06T13:23:03.276Z,18.25
2022-10-06T13:25:37.972Z,18.23
2022-10-06T13:28:05.906Z,18.23
2022-10-06T13:30:38.541Z,18.23
2022-10-06T13:33:08.767Z,18.23
2022-10-06T13:35:36.980Z,18.15
2022-10-06T13:38:06.404Z,18.27
2022-10-06T13:40:45.060Z,18.27
2022-10-06T13:43:18.262Z,18.29
2022-10-06T13:45:49.083Z,18.31
2022-10-06T13:48:22.143Z,18.22
2022-10-06T13:50:54.309Z,18.26
2022-10-06T13:53:32.075Z,18.28
2022-10-06T13:56:01.354Z,18.39
2022-10-06T13:58:33.889Z,18.39
2022-10-06T14:01:04.015Z,18.46
2022-10-06T14:06:15.965Z,18.60
2022-10-06T14:08:47.130Z,18.57
2022-10-06T14:11:24.221Z,18.62
2022-10-06T14:13:55.811Z,18.73
2022-10-06T14:16:26.073Z,18.81
2022-10-06T14:21:35.072Z,18.88
2022-10-06T14:24:06.198Z,18.88
2022-10-06T14:26:38.484Z,18.81
2022-10-06T14:29:06.452Z,18.78
2022-10-06T14:31:34.768Z,18.81
2022-10-06T14:34:04.601Z,18.80
2022-10-06T14:36:34.508Z,18.82
2022-10-06T14:39:03.330Z,18.75
2022-10-06T14:41:32.183Z,18.75
2022-10-06T14:44:03.746Z,18.73
2022-10-06T14:46:32.207Z,18.80
2022-10-06T14:49:00.651Z,18.81
2022-10-06T14:51:30.065Z,18.83
2022-10-06T14:54:03.520Z,18.80
2022-10-06T14:56:33.636Z,18.77
2022-10-06T14:59:05.985Z,18.74
2022-10-06T15:01:35.430Z,18.73
2022-10-06T15:04:05.389Z,18.83
2022-10-06T15:06:51.198Z,18.78
2022-10-06T15:09:19.065Z,18.73
2022-10-06T15:11:47.260Z,18.77
2022-10-06T15:14:16.482Z,18.80
2022-10-06T15:16:44.901Z,18.73
2022-10-06T15:19:13.701Z,18.59
2022-10-06T15:21:45.352Z,18.63
2022-10-06T15:24:15.839Z,18.58
2022-10-06T15:27:02.060Z,18.54
2022-10-06T15:29:31.672Z,18.51
2022-10-06T15:32:00.418Z,18.42
2022-10-06T15:34:29.778Z,18.30
2022-10-06T15:36:58.831Z,18.30
2022-10-06T15:39:28.802Z,18.24
2022-10-06T15:41:57.593Z,18.24
2022-10-06T15:44:25.728Z,18.21
2022-10-06T15:46:56.233Z,18.18
2022-10-06T15:49:26.095Z,18.08
2022-10-06T15:52:02.409Z,18.11
2022-10-06T15:54:34.120Z,18.03
2022-10-06T15:57:31.830Z,18.06
2022-10-06T16:00:58.628Z,18.02
2022-10-06T16:03:25.959Z,18.00
2022-10-06T16:06:06.191Z,17.97
2022-10-06T16:08:34.978Z,18.00
2022-10-06T16:11:03.631Z,17.91
2022-10-06T16:13:31.521Z,17.78
2022-10-06T16:15:59.733Z,17.76
2022-10-06T16:18:29.558Z,17.65
2022-10-06T16:20:57.762Z,17.59
2022-10-06T16:23:25.564Z,17.53
2022-10-06T16:25:53.419Z,17.51
2022-10-06T16:28:21.256Z,17.47
2022-10-06T16:30:55.809Z,17.41
2022-10-06T16:33:23.665Z,17.29
2022-10-06T16:36:00.325Z,17.18
2022-10-06T16:38:28.141Z,17.09
2022-10-06T16:40:57.277Z,17.01
2022-10-06T16:43:25.656Z,16.93
2022-10-06T16:46:01.971Z,16.86
2022-10-06T16:48:30.299Z,16.78
2022-10-06T16:51:07.954Z,16.64
2022-10-06T16:53:37.650Z,16.54
2022-10-06T16:56:06.563Z,16.38
2022-10-06T16:58:39.437Z,16.29
2022-10-06T17:01:07.898Z,16.30
2022-10-06T17:03:36.313Z,16.23
2022-10-06T17:06:11.065Z,16.10
2022-10-06T17:08:40.017Z,15.94
2022-10-06T17:11:10.992Z,15.87
2022-10-06T17:13:40.618Z,15.86
2022-10-06T17:16:10.081Z,15.78
2022-10-06T17:18:38.671Z,15.75
2022-10-06T17:21:32.208Z,15.68
2022-10-06T17:24:00.252Z,15.62
2022-10-06T17:26:30.413Z,15.61
2022-10-06T17:29:00.001Z,15.58
2022-10-06T17:31:32.607Z,15.59
2022-10-06T17:34:01.084Z,15.59
2022-10-06T17:36:30.677Z,15.58
2022-10-06T17:39:01.513Z,15.60
2022-10-06T17:41:32.278Z,15.56
2022-10-06T17:44:04.153Z,15.50
2022-10-06T17:46:34.172Z,15.54
2022-10-06T17:49:04.334Z,15.49
2022-10-06T17:51:33.680Z,15.47
2022-10-06T17:54:02.932Z,15.49
2022-10-06T17:56:34.880Z,15.48
2022-10-06T17:59:05.365Z,15.48
2022-10-06T18:01:34.598Z,15.43
2022-10-06T18:04:04.035Z,15.39
2022-10-06T18:06:35.854Z,15.40
2022-10-06T18:09:05.876Z,15.40
2022-10-06T18:11:35.472Z,15.35
2022-10-06T18:14:06.237Z,15.27
2022-10-06T18:16:37.452Z,15.27
2022-10-06T18:19:10.789Z,15.28
2022-10-06T18:21:46.152Z,15.24
2022-10-06T18:24:21.124Z,15.18
2022-10-06T18:26:50.172Z,15.14
2022-10-06T18:29:20.130Z,15.09
2022-10-06T18:31:53.519Z,15.05
2022-10-06T18:37:11.002Z,15.01
2022-10-06T18:39:48.183Z,15.01
2022-10-06T18:42:16.017Z,15.02
2022-10-06T18:45:17.891Z,15.02
2022-10-06T18:48:04.591Z,14.97
2022-10-06T18:50:36.980Z,14.92
2022-10-06T18:53:06.772Z,14.91
2022-10-06T18:55:37.482Z,14.90
2022-10-06T18:58:06.405Z,14.92
2022-10-06T19:00:37.447Z,14.93
2022-10-06T19:03:08.243Z,14.85
2022-10-06T19:05:36.351Z,14.86
2022-10-06T19:08:12.137Z,14.81
2022-10-06T19:10:59.951Z,14.75
2022-10-06T19:13:28.160Z,14.76
2022-10-06T19:15:56.227Z,14.74
2022-10-06T19:18:29.833Z,14.66
2022-10-06T19:21:09.523Z,14.63
2022-10-06T19:23:41.508Z,14.52
2022-10-06T19:26:13.475Z,14.44
2022-10-06T19:28:44.302Z,14.46
2022-10-06T19:31:21.144Z,14.37
2022-10-06T19:33:56.444Z,14.41
2022-10-06T19:36:30.862Z,14.44
2022-10-06T19:39:05.028Z,14.44
2022-10-06T19:41:50.591Z,14.41
2022-10-06T19:44:18.705Z,14.43
2022-10-06T19:46:46.581Z,14.40
2022-10-06T19:49:16.655Z,14.35
2022-10-06T19:51:45.136Z,14.36
2022-10-06T19:54:14.767Z,14.36
2022-10-06T19:56:42.571Z,14.39
2022-10-06T19:59:15.321Z,14.31
2022-10-06T20:01:43.658Z,14.33
2022-10-06T20:04:11.830Z,14.35
2022-10-06T20:06:41.352Z,14.35
2022-10-06T20:09:10.541Z,14.36
2022-10-06T20:11:45.044Z,14.36
2022-10-06T20:14:20.421Z,14.38
2022-10-06T20:16:51.204Z,14.37
2022-10-06T20:19:20.600Z,14.36
2022-10-06T20:21:49.143Z,14.35
2022-10-06T20:24:19.742Z,14.36
2022-10-06T20:26:50.582Z,14.38
2022-10-06T20:29:21.320Z,14.37
2022-10-06T20:31:51.046Z,14.39
2022-10-06T20:34:22.284Z,14.38
2022-10-06T20:36:54.815Z,14.37
2022-10-06T20:39:41.792Z,14.36
2022-10-06T20:42:15.209Z,14.37
2022-10-06T20:44:44.099Z,14.39
2022-10-06T20:47:12.616Z,14.40
2022-10-06T20:49:42.511Z,14.41
2022-10-06T20:52:14.266Z,14.44
2022-10-06T20:54:42.227Z,14.43
2022-10-06T20:57:11.748Z,14.42
2022-10-06T20:59:39.916Z,14.39
2022-10-06T21:02:08.008Z,14.33
2022-10-06T21:04:35.860Z,14.30
2022-10-06T21:07:05.909Z,14.35
2022-10-06T21:09:33.997Z,14.31
2022-10-06T21:12:02.407Z,14.30
2022-10-06T21:14:31.794Z,14.29
2022-10-06T21:16:59.861Z,14.25
2022-10-06T21:19:29.872Z,14.24
2022-10-06T21:21:57.979Z,14.25
2022-10-06T21:24:25.783Z,14.25
2022-10-06T21:26:54.003Z,14.27
2022-10-06T21:29:23.002Z,14.28
2022-10-06T21:31:53.472Z,14.28
2022-10-06T21:34:21.455Z,14.30
2022-10-06T21:36:49.515Z,14.31
2022-10-06T21:39:17.458Z,14.29
2022-10-06T21:41:45.235Z,14.26
2022-10-06T21:44:14.655Z,14.26
2022-10-06T21:46:46.429Z,14.27
2022-10-06T21:49:18.200Z,14.26
2022-10-06T21:51:48.071Z,14.23
2022-10-06T21:54:16.706Z,14.23
2022-10-06T21:56:44.840Z,14.15
2022-10-06T21:59:13.059Z,14.15
2022-10-06T22:01:42.671Z,14.13
2022-10-06T22:04:12.757Z,14.12
2022-10-06T22:06:42.848Z,14.12
2022-10-06T22:09:15.431Z,14.11
2022-10-06T22:11:44.071Z,14.12
2022-10-06T22:14:14.600Z,14.11
2022-10-06T22:16:43.218Z,14.10
2022-10-06T22:19:14.446Z,14.06
2022-10-06T22:21:45.258Z,14.05
2022-10-06T22:24:14.611Z,14.03
2022-10-06T22:26:43.724Z,13.98
2022-10-06T22:29:13.444Z,13.89
2022-10-06T22:31:43.216Z,13.85
2022-10-06T22:34:12.937Z,13.80
2022-10-06T22:36:41.402Z,13.77
2022-10-06T22:39:10.562Z,13.75
2022-10-06T22:41:38.852Z,13.72
2022-10-06T22:44:06.868Z,13.67
2022-10-06T22:46:36.535Z,13.67
2022-10-06T22:49:05.370Z,13.66
2022-10-06T22:51:33.296Z,13.65
2022-10-06T22:54:01.435Z,13.66
2022-10-06T22:56:32.587Z,13.68
2022-10-06T22:59:00.798Z,13.68
2022-10-06T23:01:29.965Z,13.67
2022-10-06T23:03:58.437Z,13.66
2022-10-06T23:06:26.930Z,13.63
2022-10-06T23:08:54.747Z,13.62
2022-10-06T23:11:24.159Z,13.62
2022-10-06T23:13:53.676Z,13.62
2022-10-06T23:16:22.764Z,13.64
2022-10-06T23:18:50.773Z,13.67
2022-10-06T23:21:22.113Z,13.66
2022-10-06T23:23:51.840Z,13.64
2022-10-06T23:26:20.783Z,13.61
2022-10-06T23:28:54.980Z,13.60
2022-10-06T23:31:23.047Z,13.58
2022-10-06T23:33:51.550Z,13.53
2022-10-06T23:36:19.674Z,13.52
2022-10-06T23:38:47.957Z,13.51
2022-10-06T23:41:16.361Z,13.45
2022-10-06T23:43:44.473Z,13.40
2022-10-06T23:46:14.342Z,13.38
2022-10-06T23:48:42.434Z,13.33
2022-10-06T23:51:12.847Z,13.31
2022-10-06T23:53:41.281Z,13.33
2022-10-06T23:56:09.927Z,13.34
2022-10-06T23:58:38.604Z,13.27
